This is the latest recevied weather packets stored in our database for station/object EA5JJP-10. If no packets are shown the sender has not sent any weather packets the latest 10 day(s).
| Time | Temp. | Humidity | Pressure | Rain* | Wind** | Luminosity | Snow |
|---|---|---|---|---|---|---|---|
| 1777420624 | 10° C | 91% | 907.1 hPa | - | - | - | - |
| 1777419725 | 10° C | 91% | 907.3 hPa | - | - | - | - |
| 1777418826 | 10° C | 91% | 907.3 hPa | - | - | - | - |
| 1777417928 | 10° C | 91% | 907.3 hPa | - | - | - | - |
| 1777417030 | 10° C | 92% | 907.2 hPa | - | - | - | - |
| 1777416132 | 10° C | 92% | 907.4 hPa | - | - | - | - |
| 1777415233 | 10° C | 92% | 907.5 hPa | - | - | - | - |
| 1777414336 | 10° C | 92% | 907.4 hPa | - | - | - | - |
| 1777413438 | 10° C | 92% | 907.5 hPa | - | - | - | - |
| 1777412538 | 10° C | 92% | 907.6 hPa | - | - | - | - |
| 1777411633 | 10.56° C | 93% | 907.8 hPa | - | - | - | - |
| 1777410732 | 10.56° C | 93% | 907.6 hPa | - | - | - | - |
| 1777409831 | 10.56° C | 93% | 907.8 hPa | - | - | - | - |
| 1777408931 | 10.56° C | 92% | 907.8 hPa | - | - | - | - |
| 1777408030 | 10.56° C | 92% | 907.8 hPa | - | - | - | - |
| 1777407129 | 10.56° C | 91% | 907.8 hPa | - | - | - | - |
| 1777406228 | 10.56° C | 91% | 907.6 hPa | - | - | - | - |
| 1777405327 | 10.56° C | 89% | 907.4 hPa | - | - | - | - |
| 1777404427 | 10.56° C | 85% | 907.4 hPa | - | - | - | - |
| 1777403526 | 11.11° C | 82% | 907.3 hPa | - | - | - | - |
| 1777402626 | 11.67° C | 79% | 907.1 hPa | - | - | - | - |
| 1777401724 | 12.78° C | 72% | 907.1 hPa | - | - | - | - |
| 1777400823 | 14.44° C | 63% | 906.8 hPa | - | - | - | - |
| 1777399922 | 15.56° C | 55% | 906.6 hPa | - | - | - | - |
| 1777399021 | 17.22° C | 48% | 906.4 hPa | - | - | - | - |
* Rain since midnight (hover to see other rain measurements)
** Current wind speed in m/s (hover to see current wind gust speed)